Larissa — C4TK2 — position and weather

sailwx.info

Track history (hours):
 
Tides and Currents Weather Stations Pressure Air Temp Water Temp Dewpoint Dewpoint Depression Visibility Wind Speed Wind Dir Waves Ship Positions

Larissa

Last reported at 2018-Apr-18 21:17 UTC. Time now 2018-Apr-21 00:19 UTC.
Position N 33°41' W 007°32'.

Length 136 m; draft 9.1 m.

Type: Ship (hazmat cat A). MMSI: 212641000.

Date/timePositionNaut miles runAvg speedWind from/ knotsBaromVisibWave heightAir tempDewpointWater temp
2018-Apr-18 21:17N 33°41' W 007°32'15814.9
2018-Apr-18 10:42N 35°56' W 009°12'2515.4
2018-Apr-18 09:05N 36°18' W 009°28'4814.3
2018-Apr-18 05:46N 37°04' W 009°39'415.7
2018-Apr-18 05:30N 37°07' W 009°35'815.5
2018-Apr-18 05:00N 37°13' W 009°29'815.6
2018-Apr-18 04:30N 37°19' W 009°23'815.3
2018-Apr-18 04:00N 37°25' W 009°17'815.4
2018-Apr-18 03:30N 37°31' W 009°11'815.3
2018-Apr-18 03:00N 37°37' W 009°05'815.6
2018-Apr-18 02:30N 37°44' W 009°01'815.1
2018-Apr-18 02:00N 37°49' W 008°54'713.3
2018-Apr-18 01:30N 37°56' W 008°51'0 0.5
2018-Apr-18 01:00N 37°56' W 008°51'0 0.0
2018-Apr-18 00:30N 37°56' W 008°51'0 0.0
2018-Apr-18 00:00N 37°56' W 008°51'0 0.0
2018-Apr-17 23:30N 37°56' W 008°51'0 0.0
2018-Apr-17 23:00N 37°56' W 008°51'0 0.0
2018-Apr-17 22:30N 37°56' W 008°51'0 0.0
2018-Apr-17 22:01N 37°56' W 008°51'0 0.0
2018-Apr-17 21:30N 37°56' W 008°51'0 0.0
2018-Apr-17 21:00N 37°56' W 008°51'0 0.0
2018-Apr-17 20:30N 37°56' W 008°51'0 0.0
2018-Apr-17 20:00N 37°56' W 008°51'0 0.0
2018-Apr-17 19:30N 37°56' W 008°51'0 0.0
2018-Apr-17 19:01N 37°56' W 008°51'0 0.0
2018-Apr-17 18:30N 37°56' W 008°51'0 0.0
2018-Apr-17 18:01N 37°56' W 008°51'0 0.0
2018-Apr-17 17:30N 37°56' W 008°51'0 0.0
2018-Apr-17 17:00N 37°56' W 008°51'0 0.0
2018-Apr-17 16:31N 37°56' W 008°51'0 0.4
2018-Apr-17 16:00N 37°56' W 008°51'4 8.6
2018-Apr-17 15:30N 37°56' W 008°56'816.3
2018-Apr-17 15:00N 38°01' W 009°05'816.3
2018-Apr-17 14:30N 38°06' W 009°13'815.9
2018-Apr-17 14:00N 38°11' W 009°21'816.2
2018-Apr-17 13:30N 38°15' W 009°29'816.0
2018-Apr-17 13:00N 38°20' W 009°37'815.9
2018-Apr-17 12:30N 38°25' W 009°46'816.0
2018-Apr-17 12:00N 38°29' W 009°55'816.0
2018-Apr-17 11:30N 38°33' W 010°03'815.5
2018-Apr-17 11:00N 38°40' W 010°06'815.8
2018-Apr-17 10:31N 38°48' W 010°07'815.6
2018-Apr-17 10:01N 38°56' W 010°07'815.9
2018-Apr-17 09:30N 39°04' W 010°05'2215.5
2018-Apr-17 08:04N 39°26' W 010°05'315.3
2018-Apr-17 07:50N 39°30' W 010°05'915.5
2018-Apr-17 07:17N 39°38' W 010°05'29711.1
2018-Apr-16 04:35N 43°48' W 006°29'314.4
2018-Apr-16 04:23N 43°48' W 006°25'614.4
2018-Apr-16 04:00N 43°47' W 006°17'714.2
2018-Apr-16 03:30N 43°47' W 006°08'714.2
2018-Apr-16 03:00N 43°46' W 005°58'714.2
2018-Apr-16 02:30N 43°45' W 005°48'714.2
2018-Apr-16 02:00N 43°44' W 005°38'714.3
2018-Apr-16 01:30N 43°44' W 005°29'814.1
2018-Apr-16 00:56N 43°43' W 005°17'614.1
2018-Apr-16 00:30N 43°42' W 005°09'714.3
2018-Apr-16 00:00N 43°42' W 004°59'6614.6
2018-Apr-15 19:31N 43°34' W 003°29'115.7
2018-Apr-15 19:27N 43°34' W 003°28'715.9
2018-Apr-15 19:00N 43°31' W 003°19'816.3
2018-Apr-15 18:30N 43°27' W 003°09'811.8
2018-Apr-15 17:51N 43°21' W 003°03'0 0.2
2018-Apr-15 17:29N 43°21' W 003°03'0 0.0
2018-Apr-15 16:53N 43°21' W 003°03'0 0.0
2018-Apr-15 16:23N 43°21' W 003°03'0 0.0
2018-Apr-15 15:59N 43°21' W 003°03'0 0.0
2018-Apr-15 15:16N 43°21' W 003°03'0 0.0
2018-Apr-15 14:42N 43°21' W 003°03'0 0.0
2018-Apr-15 14:30N 43°21' W 003°03'0 0.0
2018-Apr-15 14:00N 43°21' W 003°03'0 0.0
2018-Apr-15 13:29N 43°21' W 003°03'0 0.0
2018-Apr-15 13:00N 43°21' W 003°03'0 0.0
2018-Apr-15 12:28N 43°21' W 003°03'0 0.0
2018-Apr-15 06:49N 43°21' W 003°03'0 0.0
2018-Apr-15 06:30N 43°21' W 003°03'0 0.0
2018-Apr-15 05:39N 43°21' W 003°03'0 0.0
2018-Apr-15 05:30N 43°21' W 003°03'0 0.0
2018-Apr-15 05:00N 43°21' W 003°03'0 0.7
2018-Apr-15 04:29N 43°21' W 003°03'3 7.1
2018-Apr-15 04:00N 43°24' W 003°06'714.1
2018-Apr-15 03:30N 43°28' W 003°13'715.0
2018-Apr-15 03:00N 43°32' W 003°22'9116.7
2018-Apr-14 21:36N 43°37' W 005°27'316.6
2018-Apr-14 21:26N 43°37' W 005°31'911.1
2018-Apr-14 20:40N 43°33' W 005°41'0 0.0
2018-Apr-14 20:30N 43°33' W 005°41'0 0.0
2018-Apr-14 19:45N 43°33' W 005°41'0 0.0
2018-Apr-14 19:27N 43°33' W 005°41'0 0.0
2018-Apr-14 19:00N 43°33' W 005°41'0 0.0
2018-Apr-14 18:30N 43°33' W 005°41'0 0.0
2018-Apr-14 18:00N 43°33' W 005°41'0 0.0
2018-Apr-14 17:30N 43°33' W 005°41'0 0.0
2018-Apr-14 17:00N 43°33' W 005°41'0 0.0
2018-Apr-14 16:30N 43°33' W 005°41'0 0.0
2018-Apr-14 16:00N 43°33' W 005°41'0 0.0
2018-Apr-14 15:29N 43°33' W 005°41'0 0.0
2018-Apr-14 15:00N 43°33' W 005°41'0 0.0
2018-Apr-14 14:30N 43°33' W 005°41'0 0.0
2018-Apr-14 14:00N 43°33' W 005°41'0 0.0
2018-Apr-14 13:29N 43°33' W 005°41'0 0.0
2018-Apr-14 12:46N 43°33' W 005°41'0 0.0
2018-Apr-14 12:27N 43°33' W 005°41'0 0.0
2018-Apr-14 12:00N 43°33' W 005°41'0 0.1
2018-Apr-14 11:30N 43°33' W 005°41'3 4.9
2018-Apr-14 11:00N 43°36' W 005°40'714.8
2018-Apr-14 10:30N 43°42' W 005°46'814.7
2018-Apr-14 10:00N 43°43' W 005°57'714.7
2018-Apr-14 09:30N 43°44' W 006°06'  
2018-Apr-10 17:55N 29°55' W 014°38'5615.1
2018-Apr-10 14:14N 29°03' W 015°00'414.1
2018-Apr-10 13:58N 28°59' W 015°02'714.6
2018-Apr-10 13:31N 28°53' W 015°04'714.4
2018-Apr-10 13:01N 28°46' W 015°07'714.2
2018-Apr-10 12:31N 28°40' W 015°10'714.3
2018-Apr-10 12:01N 28°33' W 015°13'714.1
2018-Apr-10 11:31N 28°26' W 015°15'714.4
2018-Apr-10 11:01N 28°19' W 015°18'815.1
2018-Apr-10 10:31N 28°12' W 015°21'4 7.7
2018-Apr-10 10:00N 28°09' W 015°24'0 0.0
2018-Apr-10 09:30N 28°09' W 015°24'0 0.0
2018-Apr-10 09:00N 28°09' W 015°24'0 0.0
2018-Apr-10 08:30N 28°09' W 015°24'0 0.0
2018-Apr-10 08:00N 28°09' W 015°24'0 0.0
2018-Apr-10 07:30N 28°09' W 015°24'0 0.0
2018-Apr-10 07:00N 28°09' W 015°24'0 0.0
2018-Apr-10 06:30N 28°09' W 015°24'0 0.0
2018-Apr-10 06:00N 28°09' W 015°24'0 0.0
2018-Apr-10 05:30N 28°09' W 015°24'0 0.0
2018-Apr-10 05:00N 28°09' W 015°24'0 0.0
2018-Apr-10 04:30N 28°09' W 015°24'0 0.0
2018-Apr-10 04:00N 28°09' W 015°24'0 0.0
2018-Apr-10 03:30N 28°09' W 015°24'1 2.1
2018-Apr-10 03:00N 28°08' W 015°24'1 2.5
2018-Apr-10 02:30N 28°08' W 015°25'0 0.2
2018-Apr-10 02:00N 28°08' W 015°25'0 0.0
2018-Apr-10 01:29N 28°08' W 015°25'0 0.0
2018-Apr-10 01:00N 28°08' W 015°25'0 0.0
2018-Apr-10 00:30N 28°08' W 015°25'0 0.0
2018-Apr-10 00:00N 28°08' W 015°25'0 0.0
2018-Apr-09 23:30N 28°08' W 015°25'0 0.0
2018-Apr-09 23:00N 28°08' W 015°25'0 0.0
2018-Apr-09 22:30N 28°08' W 015°25'0 0.0
2018-Apr-09 22:00N 28°08' W 015°25'0 0.0
2018-Apr-09 21:30N 28°08' W 015°25'0 0.0
2018-Apr-09 21:00N 28°08' W 015°25'0 0.0
2018-Apr-09 20:30N 28°08' W 015°25'0 0.0
2018-Apr-09 20:00N 28°08' W 015°25'0 0.0
2018-Apr-09 19:30N 28°08' W 015°25'0 0.0
2018-Apr-09 18:59N 28°08' W 015°25'0 0.0
2018-Apr-09 18:30N 28°08' W 015°25'0 0.0
2018-Apr-09 18:00N 28°08' W 015°25'0 0.0
2018-Apr-09 17:30N 28°08' W 015°25'0 0.0
2018-Apr-09 17:00N 28°08' W 015°25'0 0.0
2018-Apr-09 16:30N 28°08' W 015°25'0 0.0
2018-Apr-09 16:00N 28°08' W 015°25'0 0.0
2018-Apr-09 15:30N 28°08' W 015°25'0 0.0
2018-Apr-09 15:00N 28°08' W 015°25'0 0.0
2018-Apr-09 14:30N 28°08' W 015°25'0 0.0
2018-Apr-09 14:00N 28°08' W 015°25'0 0.0
2018-Apr-09 13:30N 28°08' W 015°25'0 0.0
2018-Apr-09 13:00N 28°08' W 015°25'0 0.0
2018-Apr-09 12:30N 28°08' W 015°25'0 0.0
2018-Apr-09 12:00N 28°08' W 015°25'0 0.0
2018-Apr-09 11:30N 28°08' W 015°25'0 0.0
2018-Apr-09 11:00N 28°08' W 015°25'0 0.0
2018-Apr-09 10:30N 28°08' W 015°25'0 0.0
2018-Apr-09 10:00N 28°08' W 015°25'0 0.0
2018-Apr-09 09:30N 28°08' W 015°25'0 0.0
2018-Apr-09 09:00N 28°08' W 015°25'0 0.0
2018-Apr-09 08:30N 28°08' W 015°25'0 0.0
2018-Apr-09 08:00N 28°08' W 015°25'0 0.0
2018-Apr-09 07:30N 28°08' W 015°25'0 0.0
2018-Apr-09 06:59N 28°08' W 015°25'0 0.0
2018-Apr-09 06:30N 28°08' W 015°25'0 0.0
2018-Apr-09 06:00N 28°08' W 015°25'0 0.0
2018-Apr-09 05:30N 28°08' W 015°25'0 0.0
2018-Apr-09 05:00N 28°08' W 015°25'1 2.9
2018-Apr-09 04:30N 28°07' W 015°24'4 7.5
2018-Apr-09 04:01N 28°10' W 015°22'816.5
2018-Apr-09 03:31N 28°18' W 015°20'612.1
2018-Apr-09 03:01N 28°24' W 015°18'1 1.5
2018-Apr-09 02:30N 28°25' W 015°18'1 1.6
2018-Apr-09 02:00N 28°26' W 015°18'1 1.6
2018-Apr-09 01:30N 28°26' W 015°17'1 1.5
2018-Apr-09 01:00N 28°27' W 015°17'1 1.5
2018-Apr-09 00:30N 28°28' W 015°17'1 1.4
2018-Apr-09 00:00N 28°29' W 015°17'1 1.3
2018-Apr-08 23:30N 28°29' W 015°17'1 1.2
2018-Apr-08 23:00N 28°30' W 015°17'1 1.3
2018-Apr-08 22:30N 28°30' W 015°17'1 1.2
2018-Apr-08 22:00N 28°31' W 015°17'1 1.2
2018-Apr-08 21:30N 28°32' W 015°17'  
Track history (hours):
 
Tides and Currents Weather Stations Pressure Air Temp Water Temp Dewpoint Dewpoint Depression Visibility Wind Speed Wind Dir Waves Ship Positions

Larissa

Last reported at 2018-Apr-18 21:17 UTC. Time now 2018-Apr-21 00:19 UTC.
Position N 33°41' W 007°32'.

Length 136 m; draft 9.1 m.

Type: Ship (hazmat cat A). MMSI: 212641000.

Date/timePositionNaut miles runAvg speedWind from/ knotsBaromVisibWave heightAir tempDewpointWater temp
2018-Apr-18 21:17N 33°41' W 007°32'15814.9
2018-Apr-18 10:42N 35°56' W 009°12'2515.4
2018-Apr-18 09:05N 36°18' W 009°28'4814.3
2018-Apr-18 05:46N 37°04' W 009°39'415.7
2018-Apr-18 05:30N 37°07' W 009°35'815.5
2018-Apr-18 05:00N 37°13' W 009°29'815.6
2018-Apr-18 04:30N 37°19' W 009°23'815.3
2018-Apr-18 04:00N 37°25' W 009°17'815.4
2018-Apr-18 03:30N 37°31' W 009°11'815.3
2018-Apr-18 03:00N 37°37' W 009°05'815.6
2018-Apr-18 02:30N 37°44' W 009°01'815.1
2018-Apr-18 02:00N 37°49' W 008°54'713.3
2018-Apr-18 01:30N 37°56' W 008°51'0 0.5
2018-Apr-18 01:00N 37°56' W 008°51'0 0.0
2018-Apr-18 00:30N 37°56' W 008°51'0 0.0
2018-Apr-18 00:00N 37°56' W 008°51'0 0.0
2018-Apr-17 23:30N 37°56' W 008°51'0 0.0
2018-Apr-17 23:00N 37°56' W 008°51'0 0.0
2018-Apr-17 22:30N 37°56' W 008°51'0 0.0
2018-Apr-17 22:01N 37°56' W 008°51'0 0.0
2018-Apr-17 21:30N 37°56' W 008°51'0 0.0
2018-Apr-17 21:00N 37°56' W 008°51'0 0.0
2018-Apr-17 20:30N 37°56' W 008°51'0 0.0
2018-Apr-17 20:00N 37°56' W 008°51'0 0.0
2018-Apr-17 19:30N 37°56' W 008°51'0 0.0
2018-Apr-17 19:01N 37°56' W 008°51'0 0.0
2018-Apr-17 18:30N 37°56' W 008°51'0 0.0
2018-Apr-17 18:01N 37°56' W 008°51'0 0.0
2018-Apr-17 17:30N 37°56' W 008°51'0 0.0
2018-Apr-17 17:00N 37°56' W 008°51'0 0.0
2018-Apr-17 16:31N 37°56' W 008°51'0 0.4
2018-Apr-17 16:00N 37°56' W 008°51'4 8.6
2018-Apr-17 15:30N 37°56' W 008°56'816.3
2018-Apr-17 15:00N 38°01' W 009°05'816.3
2018-Apr-17 14:30N 38°06' W 009°13'815.9
2018-Apr-17 14:00N 38°11' W 009°21'816.2
2018-Apr-17 13:30N 38°15' W 009°29'816.0
2018-Apr-17 13:00N 38°20' W 009°37'815.9
2018-Apr-17 12:30N 38°25' W 009°46'816.0
2018-Apr-17 12:00N 38°29' W 009°55'816.0
2018-Apr-17 11:30N 38°33' W 010°03'815.5
2018-Apr-17 11:00N 38°40' W 010°06'815.8
2018-Apr-17 10:31N 38°48' W 010°07'815.6
2018-Apr-17 10:01N 38°56' W 010°07'815.9
2018-Apr-17 09:30N 39°04' W 010°05'2215.5
2018-Apr-17 08:04N 39°26' W 010°05'315.3
2018-Apr-17 07:50N 39°30' W 010°05'915.5
2018-Apr-17 07:17N 39°38' W 010°05'29711.1
2018-Apr-16 04:35N 43°48' W 006°29'314.4
2018-Apr-16 04:23N 43°48' W 006°25'614.4
2018-Apr-16 04:00N 43°47' W 006°17'714.2
2018-Apr-16 03:30N 43°47' W 006°08'714.2
2018-Apr-16 03:00N 43°46' W 005°58'714.2
2018-Apr-16 02:30N 43°45' W 005°48'714.2
2018-Apr-16 02:00N 43°44' W 005°38'714.3
2018-Apr-16 01:30N 43°44' W 005°29'814.1
2018-Apr-16 00:56N 43°43' W 005°17'614.1
2018-Apr-16 00:30N 43°42' W 005°09'714.3
2018-Apr-16 00:00N 43°42' W 004°59'6614.6
2018-Apr-15 19:31N 43°34' W 003°29'115.7
2018-Apr-15 19:27N 43°34' W 003°28'715.9
2018-Apr-15 19:00N 43°31' W 003°19'816.3
2018-Apr-15 18:30N 43°27' W 003°09'811.8
2018-Apr-15 17:51N 43°21' W 003°03'0 0.2
2018-Apr-15 17:29N 43°21' W 003°03'0 0.0
2018-Apr-15 16:53N 43°21' W 003°03'0 0.0
2018-Apr-15 16:23N 43°21' W 003°03'0 0.0
2018-Apr-15 15:59N 43°21' W 003°03'0 0.0
2018-Apr-15 15:16N 43°21' W 003°03'0 0.0
2018-Apr-15 14:42N 43°21' W 003°03'0 0.0
2018-Apr-15 14:30N 43°21' W 003°03'0 0.0
2018-Apr-15 14:00N 43°21' W 003°03'0 0.0
2018-Apr-15 13:29N 43°21' W 003°03'0 0.0
2018-Apr-15 13:00N 43°21' W 003°03'0 0.0
2018-Apr-15 12:28N 43°21' W 003°03'0 0.0
2018-Apr-15 06:49N 43°21' W 003°03'0 0.0
2018-Apr-15 06:30N 43°21' W 003°03'0 0.0
2018-Apr-15 05:39N 43°21' W 003°03'0 0.0
2018-Apr-15 05:30N 43°21' W 003°03'0 0.0
2018-Apr-15 05:00N 43°21' W 003°03'0 0.7
2018-Apr-15 04:29N 43°21' W 003°03'3 7.1
2018-Apr-15 04:00N 43°24' W 003°06'714.1
2018-Apr-15 03:30N 43°28' W 003°13'715.0
2018-Apr-15 03:00N 43°32' W 003°22'9116.7
2018-Apr-14 21:36N 43°37' W 005°27'316.6
2018-Apr-14 21:26N 43°37' W 005°31'911.1
2018-Apr-14 20:40N 43°33' W 005°41'0 0.0
2018-Apr-14 20:30N 43°33' W 005°41'0 0.0
2018-Apr-14 19:45N 43°33' W 005°41'0 0.0
2018-Apr-14 19:27N 43°33' W 005°41'0 0.0
2018-Apr-14 19:00N 43°33' W 005°41'0 0.0
2018-Apr-14 18:30N 43°33' W 005°41'0 0.0
2018-Apr-14 18:00N 43°33' W 005°41'0 0.0
2018-Apr-14 17:30N 43°33' W 005°41'0 0.0
2018-Apr-14 17:00N 43°33' W 005°41'0 0.0
2018-Apr-14 16:30N 43°33' W 005°41'0 0.0
2018-Apr-14 16:00N 43°33' W 005°41'0 0.0
2018-Apr-14 15:29N 43°33' W 005°41'0 0.0
2018-Apr-14 15:00N 43°33' W 005°41'0 0.0
2018-Apr-14 14:30N 43°33' W 005°41'0 0.0
2018-Apr-14 14:00N 43°33' W 005°41'0 0.0
2018-Apr-14 13:29N 43°33' W 005°41'0 0.0
2018-Apr-14 12:46N 43°33' W 005°41'0 0.0
2018-Apr-14 12:27N 43°33' W 005°41'0 0.0
2018-Apr-14 12:00N 43°33' W 005°41'0 0.1
2018-Apr-14 11:30N 43°33' W 005°41'3 4.9
2018-Apr-14 11:00N 43°36' W 005°40'714.8
2018-Apr-14 10:30N 43°42' W 005°46'814.7
2018-Apr-14 10:00N 43°43' W 005°57'714.7
2018-Apr-14 09:30N 43°44' W 006°06'  
2018-Apr-10 17:55N 29°55' W 014°38'5615.1
2018-Apr-10 14:14N 29°03' W 015°00'414.1
2018-Apr-10 13:58N 28°59' W 015°02'714.6
2018-Apr-10 13:31N 28°53' W 015°04'714.4
2018-Apr-10 13:01N 28°46' W 015°07'714.2
2018-Apr-10 12:31N 28°40' W 015°10'714.3
2018-Apr-10 12:01N 28°33' W 015°13'714.1
2018-Apr-10 11:31N 28°26' W 015°15'714.4
2018-Apr-10 11:01N 28°19' W 015°18'815.1
2018-Apr-10 10:31N 28°12' W 015°21'4 7.7
2018-Apr-10 10:00N 28°09' W 015°24'0 0.0
2018-Apr-10 09:30N 28°09' W 015°24'0 0.0
2018-Apr-10 09:00N 28°09' W 015°24'0 0.0
2018-Apr-10 08:30N 28°09' W 015°24'0 0.0
2018-Apr-10 08:00N 28°09' W 015°24'0 0.0
2018-Apr-10 07:30N 28°09' W 015°24'0 0.0
2018-Apr-10 07:00N 28°09' W 015°24'0 0.0
2018-Apr-10 06:30N 28°09' W 015°24'0 0.0
2018-Apr-10 06:00N 28°09' W 015°24'0 0.0
2018-Apr-10 05:30N 28°09' W 015°24'0 0.0
2018-Apr-10 05:00N 28°09' W 015°24'0 0.0
2018-Apr-10 04:30N 28°09' W 015°24'0 0.0
2018-Apr-10 04:00N 28°09' W 015°24'0 0.0
2018-Apr-10 03:30N 28°09' W 015°24'1 2.1
2018-Apr-10 03:00N 28°08' W 015°24'1 2.5
2018-Apr-10 02:30N 28°08' W 015°25'0 0.2
2018-Apr-10 02:00N 28°08' W 015°25'0 0.0
2018-Apr-10 01:29N 28°08' W 015°25'0 0.0
2018-Apr-10 01:00N 28°08' W 015°25'0 0.0
2018-Apr-10 00:30N 28°08' W 015°25'0 0.0
2018-Apr-10 00:00N 28°08' W 015°25'0 0.0
2018-Apr-09 23:30N 28°08' W 015°25'0 0.0
2018-Apr-09 23:00N 28°08' W 015°25'0 0.0
2018-Apr-09 22:30N 28°08' W 015°25'0 0.0
2018-Apr-09 22:00N 28°08' W 015°25'0 0.0
2018-Apr-09 21:30N 28°08' W 015°25'0 0.0
2018-Apr-09 21:00N 28°08' W 015°25'0 0.0
2018-Apr-09 20:30N 28°08' W 015°25'0 0.0
2018-Apr-09 20:00N 28°08' W 015°25'0 0.0
2018-Apr-09 19:30N 28°08' W 015°25'0 0.0
2018-Apr-09 18:59N 28°08' W 015°25'0 0.0
2018-Apr-09 18:30N 28°08' W 015°25'0 0.0
2018-Apr-09 18:00N 28°08' W 015°25'0 0.0
2018-Apr-09 17:30N 28°08' W 015°25'0 0.0
2018-Apr-09 17:00N 28°08' W 015°25'0 0.0
2018-Apr-09 16:30N 28°08' W 015°25'0 0.0
2018-Apr-09 16:00N 28°08' W 015°25'0 0.0
2018-Apr-09 15:30N 28°08' W 015°25'0 0.0
2018-Apr-09 15:00N 28°08' W 015°25'0 0.0
2018-Apr-09 14:30N 28°08' W 015°25'0 0.0
2018-Apr-09 14:00N 28°08' W 015°25'0 0.0
2018-Apr-09 13:30N 28°08' W 015°25'0 0.0
2018-Apr-09 13:00N 28°08' W 015°25'0 0.0
2018-Apr-09 12:30N 28°08' W 015°25'0 0.0
2018-Apr-09 12:00N 28°08' W 015°25'0 0.0
2018-Apr-09 11:30N 28°08' W 015°25'0 0.0
2018-Apr-09 11:00N 28°08' W 015°25'0 0.0
2018-Apr-09 10:30N 28°08' W 015°25'0 0.0
2018-Apr-09 10:00N 28°08' W 015°25'0 0.0
2018-Apr-09 09:30N 28°08' W 015°25'0 0.0
2018-Apr-09 09:00N 28°08' W 015°25'0 0.0
2018-Apr-09 08:30N 28°08' W 015°25'0 0.0
2018-Apr-09 08:00N 28°08' W 015°25'0 0.0
2018-Apr-09 07:30N 28°08' W 015°25'0 0.0
2018-Apr-09 06:59N 28°08' W 015°25'0 0.0
2018-Apr-09 06:30N 28°08' W 015°25'0 0.0
2018-Apr-09 06:00N 28°08' W 015°25'0 0.0
2018-Apr-09 05:30N 28°08' W 015°25'0 0.0
2018-Apr-09 05:00N 28°08' W 015°25'1 2.9
2018-Apr-09 04:30N 28°07' W 015°24'4 7.5
2018-Apr-09 04:01N 28°10' W 015°22'816.5
2018-Apr-09 03:31N 28°18' W 015°20'612.1
2018-Apr-09 03:01N 28°24' W 015°18'1 1.5
2018-Apr-09 02:30N 28°25' W 015°18'1 1.6
2018-Apr-09 02:00N 28°26' W 015°18'1 1.6
2018-Apr-09 01:30N 28°26' W 015°17'1 1.5
2018-Apr-09 01:00N 28°27' W 015°17'1 1.5
2018-Apr-09 00:30N 28°28' W 015°17'1 1.4
2018-Apr-09 00:00N 28°29' W 015°17'1 1.3
2018-Apr-08 23:30N 28°29' W 015°17'1 1.2
2018-Apr-08 23:00N 28°30' W 015°17'1 1.3
2018-Apr-08 22:30N 28°30' W 015°17'1 1.2
2018-Apr-08 22:00N 28°31' W 015°17'1 1.2
2018-Apr-08 21:30N 28°32' W 015°17'  

Dump ship's entire track history